Terminal Aerodrome Forecast
Issued by NWS Amarillo, TX

Home | Current Version | Previous Version | Text Only | Print | Product List | Glossary On
Versions: 1 2 3 4 5 6 7 8 9 10 11 12 13
000
FTUS44 KAMA 212300
TAFGUY
TAF
KGUY 212320Z 2200/2224 19015G21KT P6SM BKN100
     FM220200 19010KT P6SM SCT120
     FM221400 20015G20KT P6SM BKN250=

USA.gov is the U.S. government's official web portal to all federal, state and local government web resources and services.